ADDS METAR Data INFO
IDs: Format: Raw Decoded Include TAF

Data at: 1922 UTC 19 Jul 2018

KDEC 191854Z 18011KT 10SM SCT090 BKN110 27/18 A2994 RMK AO2 SLP134 T02720178
KDEC 191754Z 16011KT 10SM FEW110 28/18 A2994 RMK AO2 SLP134 T02780178 10278 20167 58011
KDEC 191654Z 18010KT 10SM BKN120 27/18 A2996 RMK AO2 SLP141 T02720178
KDEC 191554Z 17008KT 10SM BKN110 26/17 A2998 RMK AO2 SLP146 T02610172
KDEC 191454Z 15006KT 10SM FEW110 25/18 A2997 RMK AO2 SLP145 T02500183 58005
KDEC 191354Z 13004KT 10SM CLR 22/18 A2999 RMK AO2 SLP150 T02220178
KDEC 191254Z 11004KT 10SM CLR 19/17 A2999 RMK AO2 SLP152 T01890167
KDEC 191154Z 09003KT 10SM CLR 17/15 A2999 RMK AO2 SLP150 T01670150 10172 20144 56002
KDEC 191054Z 06003KT 10SM CLR 14/14 A2999 RMK AO2 SLP151 T01440139
KDEC 190954Z AUTO 00000KT 10SM CLR 15/14 A2998 RMK AO2 SLP149 T01500139
KDEC 190854Z AUTO 07003KT 10SM CLR 16/14 A2999 RMK AO2 SLP152 T01610144 58016
KDEC 190754Z AUTO 07003KT 10SM CLR 17/15 A3001 RMK AO2 SLP159 T01670150
KDEC 190654Z AUTO 00000KT 10SM CLR 16/15 A3002 RMK AO2 SLP162 T01610150
KDEC 190554Z AUTO 06003KT 10SM CLR 16/15 A3004 RMK AO2 SLP168 T01610150 10256 20156 402780150 53002
KDEC 190454Z AUTO 05004KT 10SM CLR 16/16 A3004 RMK AO2 SLP167 T01610156
KDEC 190354Z AUTO 03005KT 10SM CLR 17/16 A3003 RMK AO2 SLP166 T01720161
KDEC 190254Z 03004KT 10SM CLR 17/16 A3004 RMK AO2 SLP166 T01720161 53003
KDEC 190154Z 04005KT 10SM CLR 19/17 A3002 RMK AO2 SLP162 T01890172
KDEC 190054Z 01004KT 10SM CLR 22/17 A3002 RMK AO2 SLP163 T02220167
KDEC 182354Z 05006KT 10SM CLR 26/17 A3003 RMK AO2 SLP163 T02560167 10278 20250 56009
KDEC 182254Z 02008KT 10SM CLR 26/16 A3003 RMK AO2 SLP164 T02560156
KDEC 182154Z 01009KT 10SM CLR 27/16 A3004 RMK AO2 SLP166 T02670161
KDEC 182054Z 03009KT 10SM CLR 27/16 A3005 RMK AO2 SLP173 T02670161 58015
KDEC 181954Z 03008KT 10SM CLR 27/17 A3007 RMK AO2 SLP179 T02720167
KDEC 181854Z 06008G15KT 10SM CLR 27/17 A3009 RMK AO2 SLP184 T02720172
KDEC 181754Z 06010KT 10SM CLR 26/17 A3010 RMK AO2 SLP187 T02610167 10261 20178 58006
KDEC 181654Z 06008KT 10SM CLR 26/16 A3011 RMK AO2 SLP192 T02560161
KDEC 181554Z 07008KT 10SM CLR 24/17 A3013 RMK AO2 SLP198 T02440167
KDEC 181454Z 08009KT 10SM CLR 23/16 A3012 RMK AO2 SLP193 T02330161 58001
KDEC 181354Z 09009KT 10SM CLR 22/15 A3012 RMK AO2 SLP196 T02170150
KDEC 181254Z 09006KT 10SM CLR 19/16 A3012 RMK AO2 SLP193 T01940161
KDEC 181154Z 06003KT 10SM CLR 17/16 A3012 RMK AO2 SLP195 T01720156 10189 20150 53007
KDEC 181054Z 00000KT 10SM CLR 16/15 A3011 RMK AO2 SLP191 T01560150
KDEC 180954Z AUTO 05005KT 10SM CLR 15/15 A3010 RMK AO2 SLP189 T01500150
KDEC 180854Z AUTO 05004KT 10SM CLR 16/16 A3010 RMK AO2 SLP187 T01610156 51002
KDEC 180754Z AUTO 06004KT 10SM CLR 17/17 A3010 RMK AO2 SLP188 T01720167